Time;durP1;ratioP1;P1;durP2;ratioP2;P2;SDS_P1;SDS_P2;PMS_P1;PMS_P2;Temp;Humidity;BMP_temperature;BMP_pressure;BME280_temperature;BME280_humidity;BME280_pressure;Samples;Min_cycle;Max_cycle;Signal;HPM_P1;HPM_P2
2020/12/24 00:01:53;;;;;;;6.73;1.80;;;;;;;;;;5033308;28;20414;-53
2020/12/24 00:04:19;;;;;;;3.97;1.70;;;;;;;;;;5033517;28;20425;-53
2020/12/24 00:06:45;;;;;;;7.90;2.13;;;;;;;;;;5039270;28;20498;-51
2020/12/24 00:09:11;;;;;;;9.83;2.07;;;;;;;;;;5052307;28;20421;-51
2020/12/24 00:11:37;;;;;;;2.03;1.13;;;;;;;;;;5052522;28;20831;-51
2020/12/24 00:14:03;;;;;;;9.30;1.90;;;;;;;;;;5048920;28;20478;-53
2020/12/24 00:16:29;;;;;;;5.63;1.83;;;;;;;;;;5053329;28;21067;-54
2020/12/24 00:18:55;;;;;;;2.63;1.63;;;;;;;;;;5053436;28;20468;-50
2020/12/24 00:21:21;;;;;;;7.67;2.07;;;;;;;;;;5051706;28;20421;-51
2020/12/24 00:23:47;;;;;;;4.80;1.97;;;;;;;;;;5053121;28;20881;-50
2020/12/24 00:26:13;;;;;;;7.50;1.53;;;;;;;;;;5053236;28;20405;-51
2020/12/24 00:28:39;;;;;;;5.60;1.87;;;;;;;;;;5053050;28;20404;-50
2020/12/24 00:31:06;;;;;;;4.20;1.47;;;;;;;;;;5052931;28;20412;-52
2020/12/24 00:33:32;;;;;;;6.10;1.83;;;;;;;;;;5052842;28;20417;-52
2020/12/24 00:35:58;;;;;;;16.67;4.33;;;;;;;;;;5049314;28;20488;-53
2020/12/24 00:38:24;;;;;;;4.67;3.10;;;;;;;;;;5052956;28;20457;-53
2020/12/24 00:40:50;;;;;;;3.97;1.90;;;;;;;;;;5052884;28;20397;-52
2020/12/24 00:43:16;;;;;;;11.57;2.03;;;;;;;;;;5053050;28;20444;-50
2020/12/24 00:45:42;;;;;;;3.70;1.60;;;;;;;;;;5053046;28;20889;-51
2020/12/24 00:48:08;;;;;;;4.40;1.67;;;;;;;;;;5053030;28;20746;-50
2020/12/24 00:50:34;;;;;;;3.80;1.60;;;;;;;;;;5052814;28;20408;-51
2020/12/24 00:53:00;;;;;;;12.87;1.93;;;;;;;;;;5052488;28;20482;-51
2020/12/24 00:55:26;;;;;;;4.80;1.50;;;;;;;;;;5051829;28;20405;-51
2020/12/24 00:57:52;;;;;;;4.47;1.40;;;;;;;;;;5052509;28;20464;-50
2020/12/24 01:00:18;;;;;;;2.30;1.80;;;;;;;;;;5052631;28;20401;-50
2020/12/24 01:02:44;;;;;;;8.13;1.97;;;;;;;;;;5051780;28;20771;-50
2020/12/24 01:05:10;;;;;;;8.03;1.87;;;;;;;;;;5048014;28;20444;-51
2020/12/24 01:07:36;;;;;;;7.40;2.27;;;;;;;;;;5051018;28;20468;-50
2020/12/24 01:10:05;;;;;;;14.53;2.90;;;;;;;;;;5052499;28;20516;-51
2020/12/24 01:12:31;;;;;;;4.40;2.13;;;;;;;;;;5051863;28;20468;-51
2020/12/24 01:14:57;;;;;;;11.60;2.90;;;;;;;;;;5052312;28;20849;-50
2020/12/24 01:17:23;;;;;;;5.30;1.40;;;;;;;;;;5051458;28;20551;-51
2020/12/24 01:19:48;;;;;;;10.30;1.90;;;;;;;;;;5052293;28;20396;-50
2020/12/24 01:22:14;;;;;;;6.67;2.10;;;;;;;;;;5051638;28;20925;-50
2020/12/24 01:24:40;;;;;;;9.43;2.43;;;;;;;;;;5052041;28;20889;-51
2020/12/24 01:27:06;;;;;;;9.07;2.80;;;;;;;;;;5052009;28;20773;-50
2020/12/24 01:29:32;;;;;;;8.83;2.10;;;;;;;;;;5050736;28;20412;-52
2020/12/24 01:31:58;;;;;;;5.47;1.93;;;;;;;;;;5051221;28;20514;-53
2020/12/24 01:34:24;;;;;;;5.83;2.30;;;;;;;;;;5047829;28;20421;-51
2020/12/24 01:36:50;;;;;;;8.70;2.60;;;;;;;;;;5051804;28;20491;-51
2020/12/24 01:39:16;;;;;;;13.60;2.97;;;;;;;;;;5051571;28;20396;-52
2020/12/24 01:41:42;;;;;;;4.60;1.57;;;;;;;;;;5051496;28;20483;-53
2020/12/24 01:44:08;;;;;;;8.40;3.27;;;;;;;;;;5050871;28;20428;-54
2020/12/24 01:46:34;;;;;;;11.70;2.43;;;;;;;;;;5051637;28;20427;-50
2020/12/24 01:49:00;;;;;;;10.30;2.47;;;;;;;;;;5051595;28;20534;-50
2020/12/24 01:51:28;;;;;;;8.53;2.67;;;;;;;;;;5050618;28;20767;-50
2020/12/24 01:53:54;;;;;;;7.87;2.20;;;;;;;;;;5051606;28;20414;-50
2020/12/24 01:56:22;;;;;;;9.03;2.50;;;;;;;;;;5051277;28;20911;-51
2020/12/24 01:58:48;;;;;;;2.40;1.60;;;;;;;;;;5051427;28;20408;-51
2020/12/24 02:01:14;;;;;;;6.53;2.30;;;;;;;;;;5050603;28;20400;-51
2020/12/24 02:03:40;;;;;;;4.93;1.60;;;;;;;;;;5047641;28;20454;-51
2020/12/24 02:06:06;;;;;;;13.70;2.77;;;;;;;;;;5050761;28;20400;-52
2020/12/24 02:08:32;;;;;;;6.43;1.90;;;;;;;;;;5051435;28;20412;-53
2020/12/24 02:10:59;;;;;;;5.37;2.53;;;;;;;;;;5050656;28;20404;-51
2020/12/24 02:13:25;;;;;;;8.50;2.10;;;;;;;;;;5050168;28;20522;-50
2020/12/24 02:15:51;;;;;;;8.03;2.30;;;;;;;;;;5051008;28;20513;-50
2020/12/24 02:18:16;;;;;;;9.17;2.00;;;;;;;;;;5049976;28;20464;-50
2020/12/24 02:20:43;;;;;;;5.97;1.87;;;;;;;;;;5051064;28;20404;-52
2020/12/24 02:23:09;;;;;;;10.10;2.33;;;;;;;;;;5049547;28;20448;-51
2020/12/24 02:25:36;;;;;;;8.93;3.00;;;;;;;;;;5051068;28;20865;-51
2020/12/24 02:28:01;;;;;;;6.63;2.57;;;;;;;;;;5050828;28;20401;-50
2020/12/24 02:30:27;;;;;;;10.63;2.37;;;;;;;;;;5051004;28;20411;-50
2020/12/24 02:32:54;;;;;;;5.93;2.07;;;;;;;;;;5046689;28;20456;-51
2020/12/24 02:35:20;;;;;;;9.77;2.17;;;;;;;;;;5050879;28;20886;-50
2020/12/24 02:37:46;;;;;;;11.00;2.60;;;;;;;;;;5050653;28;20974;-50
2020/12/24 02:40:12;;;;;;;7.47;3.20;;;;;;;;;;5050020;28;20415;-50
2020/12/24 02:42:38;;;;;;;13.57;2.47;;;;;;;;;;5049922;28;20424;-50
2020/12/24 02:45:05;;;;;;;7.90;2.00;;;;;;;;;;5050688;28;20419;-50
2020/12/24 02:47:31;;;;;;;11.70;2.20;;;;;;;;;;5050635;28;20881;-51
2020/12/24 02:49:59;;;;;;;21.27;2.70;;;;;;;;;;5049908;28;20409;-50
2020/12/24 02:52:26;;;;;;;5.67;2.10;;;;;;;;;;5050424;28;20432;-52
2020/12/24 02:54:52;;;;;;;11.43;2.40;;;;;;;;;;5050443;28;20399;-52
2020/12/24 02:57:18;;;;;;;3.80;2.67;;;;;;;;;;5050364;28;20551;-52
2020/12/24 02:59:44;;;;;;;6.43;2.83;;;;;;;;;;5049856;28;20484;-53
2020/12/24 03:02:10;;;;;;;7.73;2.53;;;;;;;;;;5046783;28;20477;-53
2020/12/24 03:04:36;;;;;;;10.10;1.80;;;;;;;;;;5050399;28;20506;-54
2020/12/24 03:07:02;;;;;;;9.37;1.93;;;;;;;;;;5050683;28;20412;-51
2020/12/24 03:09:29;;;;;;;4.27;1.83;;;;;;;;;;5047147;28;20524;-52
2020/12/24 03:11:54;;;;;;;5.20;2.13;;;;;;;;;;5050382;28;20436;-52
2020/12/24 03:14:21;;;;;;;9.97;2.30;;;;;;;;;;5050686;28;20406;-52
2020/12/24 03:16:47;;;;;;;7.17;2.40;;;;;;;;;;5050688;28;20551;-53
2020/12/24 03:19:14;;;;;;;6.77;2.20;;;;;;;;;;5050439;28;20397;-50
2020/12/24 03:21:40;;;;;;;13.00;2.00;;;;;;;;;;5050272;28;20795;-50
2020/12/24 03:24:06;;;;;;;3.93;1.80;;;;;;;;;;5051087;28;20412;-50
2020/12/24 03:26:33;;;;;;;7.03;2.03;;;;;;;;;;5050343;28;20401;-50
2020/12/24 03:28:59;;;;;;;11.00;2.80;;;;;;;;;;5051456;28;20412;-53
2020/12/24 03:31:25;;;;;;;6.90;1.93;;;;;;;;;;5050585;28;20947;-52
2020/12/24 03:33:52;;;;;;;7.43;3.43;;;;;;;;;;5054292;28;20403;-53
2020/12/24 03:36:18;;;;;;;9.13;1.97;;;;;;;;;;5054017;28;20491;-50
2020/12/24 03:38:44;;;;;;;6.07;2.00;;;;;;;;;;5054153;28;20396;-50
2020/12/24 03:41:10;;;;;;;6.10;2.17;;;;;;;;;;5053612;28;20409;-51
2020/12/24 03:43:36;;;;;;;12.40;2.70;;;;;;;;;;5053947;28;20428;-51
2020/12/24 03:46:02;;;;;;;7.23;1.90;;;;;;;;;;5052748;28;20487;-53
2020/12/24 03:48:28;;;;;;;3.20;1.40;;;;;;;;;;5053922;28;20407;-52
2020/12/24 03:50:54;;;;;;;6.70;1.70;;;;;;;;;;5053768;28;20412;-53
2020/12/24 03:53:20;;;;;;;7.33;2.10;;;;;;;;;;5053496;28;20428;-51
2020/12/24 03:55:46;;;;;;;10.00;2.60;;;;;;;;;;5053847;28;20434;-53
2020/12/24 03:58:12;;;;;;;5.60;2.00;;;;;;;;;;5053628;28;20549;-52
2020/12/24 04:00:39;;;;;;;6.67;2.40;;;;;;;;;;5051371;28;20485;-52
2020/12/24 04:03:06;;;;;;;10.03;1.87;;;;;;;;;;5052582;28;20452;-50
2020/12/24 04:05:32;;;;;;;6.27;2.07;;;;;;;;;;5053598;28;20464;-52
2020/12/24 04:07:58;;;;;;;6.73;2.00;;;;;;;;;;5053418;28;20401;-51
2020/12/24 04:10:24;;;;;;;6.43;1.37;;;;;;;;;;5053633;28;20472;-50
2020/12/24 04:12:50;;;;;;;14.63;2.03;;;;;;;;;;5053071;28;20938;-50
2020/12/24 04:15:16;;;;;;;9.33;1.67;;;;;;;;;;5053456;28;20408;-50
2020/12/24 04:17:42;;;;;;;7.17;1.77;;;;;;;;;;5053159;28;20787;-50
2020/12/24 04:20:08;;;;;;;6.43;2.10;;;;;;;;;;5053455;28;20453;-50
2020/12/24 04:22:34;;;;;;;6.23;1.87;;;;;;;;;;5052815;28;20502;-50
2020/12/24 04:25:00;;;;;;;11.30;2.40;;;;;;;;;;5053182;28;20400;-52
2020/12/24 04:27:26;;;;;;;3.73;1.57;;;;;;;;;;5053028;28;20756;-51
2020/12/24 04:29:53;;;;;;;8.93;1.70;;;;;;;;;;5053014;28;20488;-51
2020/12/24 04:32:19;;;;;;;7.67;2.20;;;;;;;;;;5049580;28;20452;-49
2020/12/24 04:34:45;;;;;;;6.13;1.57;;;;;;;;;;5052982;28;20422;-50
2020/12/24 04:37:11;;;;;;;11.80;2.20;;;;;;;;;;5052974;28;20462;-50
2020/12/24 04:39:37;;;;;;;11.00;2.00;;;;;;;;;;5052874;28;20888;-49
2020/12/24 04:42:03;;;;;;;10.97;1.80;;;;;;;;;;5051708;28;20846;-51
2020/12/24 04:44:30;;;;;;;12.20;2.40;;;;;;;;;;5052843;28;20407;-50
2020/12/24 04:46:56;;;;;;;4.20;1.70;;;;;;;;;;5052786;28;20415;-50
2020/12/24 04:49:24;;;;;;;8.60;2.47;;;;;;;;;;5052734;28;20408;-53
2020/12/24 04:51:50;;;;;;;1.77;1.53;;;;;;;;;;5051448;28;20493;-50
2020/12/24 04:54:17;;;;;;;9.80;1.70;;;;;;;;;;5052589;28;20416;-51
2020/12/24 04:56:43;;;;;;;8.33;1.93;;;;;;;;;;5052796;28;20464;-53
2020/12/24 04:59:09;;;;;;;7.77;2.40;;;;;;;;;;5052689;28;20797;-52
2020/12/24 05:01:35;;;;;;;5.57;2.07;;;;;;;;;;5050738;28;20546;-52
2020/12/24 05:04:02;;;;;;;4.00;1.67;;;;;;;;;;5052597;28;20936;-52
2020/12/24 05:06:28;;;;;;;5.77;1.73;;;;;;;;;;5052430;28;20499;-50
2020/12/24 05:08:55;;;;;;;7.73;2.30;;;;;;;;;;5052603;28;20451;-50
2020/12/24 05:11:24;;;;;;;5.60;1.87;;;;;;;;;;5052008;28;20492;-50
2020/12/24 05:13:50;;;;;;;2.70;2.03;;;;;;;;;;5051955;28;20397;-50
2020/12/24 05:16:16;;;;;;;3.80;1.70;;;;;;;;;;5051766;28;20813;-50
2020/12/24 05:18:43;;;;;;;3.20;2.07;;;;;;;;;;5052406;28;20463;-50
2020/12/24 05:21:09;;;;;;;10.77;2.67;;;;;;;;;;5052188;28;20440;-49
2020/12/24 05:23:35;;;;;;;3.83;1.30;;;;;;;;;;5052458;28;20456;-50
2020/12/24 05:26:01;;;;;;;5.17;1.87;;;;;;;;;;5052431;28;20404;-50
2020/12/24 05:28:28;;;;;;;8.53;2.20;;;;;;;;;;5052244;28;20411;-49
2020/12/24 05:30:55;;;;;;;9.47;1.70;;;;;;;;;;5048962;28;20413;-52
2020/12/24 05:33:30;;;;;;;6.00;1.87;;;;;;;;;;5050650;28;20463;-51
2020/12/24 05:36:15;;;;;;;8.50;1.87;;;;;;;;;;5052050;28;20407;-49
2020/12/24 05:38:41;;;;;;;5.23;1.53;;;;;;;;;;5051675;28;20974;-50
2020/12/24 05:41:26;;;;;;;7.03;1.83;;;;;;;;;;5051612;28;20439;-50
2020/12/24 05:43:56;;;;;;;9.13;2.10;;;;;;;;;;5051346;28;20396;-51
2020/12/24 05:46:23;;;;;;;7.13;1.93;;;;;;;;;;5051923;28;20417;-51
2020/12/24 05:48:49;;;;;;;6.97;2.13;;;;;;;;;;5051495;28;20396;-49
2020/12/24 05:51:19;;;;;;;5.90;1.63;;;;;;;;;;5051084;28;20958;-50
2020/12/24 05:53:48;;;;;;;5.97;2.40;;;;;;;;;;5051389;28;20396;-52
2020/12/24 05:56:20;;;;;;;6.20;1.80;;;;;;;;;;5051503;28;20396;-49
2020/12/24 05:58:47;;;;;;;5.43;1.80;;;;;;;;;;5051477;28;20429;-53
2020/12/24 06:01:14;;;;;;;9.23;2.13;;;;;;;;;;5049511;28;20496;-51
2020/12/24 06:04:02;;;;;;;5.33;2.23;;;;;;;;;;5051379;28;20523;-49
2020/12/24 06:06:47;;;;;;;2.50;1.80;;;;;;;;;;5051411;28;20509;-49
2020/12/24 06:09:14;;;;;;;8.73;2.00;;;;;;;;;;5051288;28;20419;-52
2020/12/24 06:11:48;;;;;;;2.80;1.60;;;;;;;;;;5051038;28;20430;-50
2020/12/24 06:14:15;;;;;;;5.53;1.80;;;;;;;;;;5051133;28;20390;-51
2020/12/24 06:16:44;;;;;;;5.87;2.23;;;;;;;;;;5051153;28;20452;-52
2020/12/24 06:19:12;;;;;;;5.73;2.00;;;;;;;;;;5050994;28;20792;-51
2020/12/24 06:21:41;;;;;;;5.80;3.10;;;;;;;;;;5050816;28;20422;-50
2020/12/24 06:24:09;;;;;;;7.40;2.30;;;;;;;;;;5050952;28;21053;-50
2020/12/24 06:26:36;;;;;;;6.93;2.40;;;;;;;;;;5051117;28;20408;-50
2020/12/24 06:29:03;;;;;;;8.90;2.20;;;;;;;;;;5050809;28;20404;-50
2020/12/24 06:31:29;;;;;;;3.80;1.60;;;;;;;;;;5046778;28;20924;-50
2020/12/24 06:33:55;;;;;;;3.77;1.37;;;;;;;;;;5050772;28;20401;-50
2020/12/24 06:36:30;;;;;;;9.07;2.17;;;;;;;;;;5048779;28;20399;-50
2020/12/24 06:38:57;;;;;;;6.00;1.83;;;;;;;;;;5049271;28;20411;-50
2020/12/24 06:41:30;;;;;;;5.67;1.90;;;;;;;;;;5048671;28;20446;-50
2020/12/24 06:43:57;;;;;;;13.90;2.50;;;;;;;;;;5050235;28;20410;-52
2020/12/24 06:46:23;;;;;;;5.50;1.90;;;;;;;;;;5048246;28;20465;-51
2020/12/24 06:49:02;;;;;;;11.03;2.00;;;;;;;;;;5050104;28;20474;-51
2020/12/24 06:51:45;;;;;;;6.77;2.10;;;;;;;;;;5049286;28;20539;-50
2020/12/24 06:54:40;;;;;;;6.40;2.10;;;;;;;;;;5050644;28;20527;-50
2020/12/24 06:57:19;;;;;;;9.13;2.40;;;;;;;;;;5041639;28;20530;-50
2020/12/24 06:59:45;;;;;;;6.77;1.73;;;;;;;;;;5049828;28;20408;-54
2020/12/24 07:02:22;;;;;;;5.03;1.97;;;;;;;;;;5049561;28;20444;-50
2020/12/24 07:04:48;;;;;;;3.77;1.87;;;;;;;;;;5052695;28;20419;-50
2020/12/24 07:07:34;;;;;;;11.10;2.50;;;;;;;;;;5054129;28;20492;-50
2020/12/24 07:10:00;;;;;;;10.43;2.00;;;;;;;;;;5054114;28;20499;-53
2020/12/24 07:12:33;;;;;;;4.20;2.20;;;;;;;;;;5053545;28;20506;-52
2020/12/24 07:15:19;;;;;;;6.77;2.30;;;;;;;;;;5053357;28;20408;-50
2020/12/24 07:17:45;;;;;;;4.13;2.10;;;;;;;;;;5054242;28;20830;-49
2020/12/24 07:20:14;;;;;;;4.13;2.37;;;;;;;;;;5054623;28;20427;-49
2020/12/24 07:22:43;;;;;;;6.40;2.40;;;;;;;;;;5053971;28;21007;-52
2020/12/24 07:25:09;;;;;;;5.23;1.70;;;;;;;;;;5054427;28;20404;-50
2020/12/24 07:27:48;;;;;;;7.07;1.90;;;;;;;;;;5054242;28;20415;-50
2020/12/24 07:30:15;;;;;;;6.00;2.20;;;;;;;;;;5051755;28;20958;-50
2020/12/24 07:32:41;;;;;;;5.87;2.03;;;;;;;;;;5051404;28;20456;-52
2020/12/24 07:35:08;;;;;;;6.33;2.50;;;;;;;;;;5054237;28;20410;-49
2020/12/24 07:37:35;;;;;;;7.23;2.03;;;;;;;;;;5054270;28;20456;-50
2020/12/24 07:40:01;;;;;;;11.23;1.93;;;;;;;;;;5054036;28;20778;-50
2020/12/24 07:42:27;;;;;;;8.73;1.90;;;;;;;;;;5053807;28;20527;-50
2020/12/24 07:44:53;;;;;;;4.93;2.10;;;;;;;;;;5054066;28;20893;-53
2020/12/24 07:47:19;;;;;;;5.97;3.17;;;;;;;;;;5054332;28;20514;-51
2020/12/24 07:49:49;;;;;;;4.63;2.00;;;;;;;;;;5053935;28;20401;-51
2020/12/24 07:52:15;;;;;;;3.00;2.10;;;;;;;;;;5053869;28;20425;-49
2020/12/24 07:54:40;;;;;;;2.80;1.80;;;;;;;;;;5054083;28;20498;-49
2020/12/24 07:57:07;;;;;;;1.90;1.80;;;;;;;;;;5054119;28;20483;-49
2020/12/24 07:59:33;;;;;;;2.10;2.00;;;;;;;;;;5054030;28;20404;-50
2020/12/24 08:02:05;;;;;;;1.90;1.80;;;;;;;;;;5049891;28;20504;-49
2020/12/24 08:04:31;;;;;;;2.10;2.00;;;;;;;;;;5053569;28;20787;-49
2020/12/24 08:06:57;;;;;;;2.40;2.30;;;;;;;;;;5053774;28;20401;-50
2020/12/24 08:09:23;;;;;;;2.30;2.20;;;;;;;;;;5053610;28;21184;-49
2020/12/24 08:11:53;;;;;;;2.20;2.00;;;;;;;;;;5053210;28;20486;-49
2020/12/24 08:14:22;;;;;;;2.00;1.90;;;;;;;;;;5053578;28;20821;-50
2020/12/24 08:16:49;;;;;;;2.60;2.40;;;;;;;;;;5051791;28;21092;-52
2020/12/24 08:19:17;;;;;;;2.10;2.00;;;;;;;;;;5053505;28;20170;-50
2020/12/24 08:21:51;;;;;;;2.20;2.10;;;;;;;;;;5052968;28;20678;-49
2020/12/24 08:24:17;;;;;;;3.85;2.33;;;;;;;;;;5053369;28;20175;-50
2020/12/24 08:26:44;;;;;;;3.22;3.03;;;;;;;;;;5053069;28;20247;-50
2020/12/24 08:29:10;;;;;;;4.03;3.17;;;;;;;;;;5053307;28;20267;-49
2020/12/24 08:31:40;;;;;;;2.77;2.53;;;;;;;;;;5049578;28;20734;-49
2020/12/24 08:34:07;;;;;;;2.55;2.45;;;;;;;;;;5053189;28;20398;-51
2020/12/24 08:36:40;;;;;;;2.42;2.30;;;;;;;;;;5052866;28;20197;-50
2020/12/24 08:39:08;;;;;;;2.60;2.40;;;;;;;;;;5053122;28;20179;-52
2020/12/24 08:41:36;;;;;;;2.28;2.17;;;;;;;;;;5051185;28;20289;-51
2020/12/24 08:44:03;;;;;;;2.45;2.25;;;;;;;;;;5052989;28;20212;-49
2020/12/24 08:46:29;;;;;;;2.15;2.05;;;;;;;;;;5052923;28;20618;-49
2020/12/24 08:48:55;;;;;;;2.00;1.90;;;;;;;;;;5052776;28;20162;-50
2020/12/24 08:51:22;;;;;;;2.50;2.30;;;;;;;;;;5052430;28;20397;-49
2020/12/24 08:53:51;;;;;;;3.45;2.70;;;;;;;;;;5052647;28;20408;-49
2020/12/24 08:56:18;;;;;;;3.00;2.80;;;;;;;;;;5052776;28;20696;-50
2020/12/24 08:58:50;;;;;;;4.82;3.17;;;;;;;;;;5052532;28;20210;-53
2020/12/24 09:01:17;;;;;;;2.47;2.28;;;;;;;;;;5052330;28;20174;-50
2020/12/24 09:03:43;;;;;;;3.55;3.25;;;;;;;;;;5048837;28;20757;-50
2020/12/24 09:06:16;;;;;;;2.80;2.47;;;;;;;;;;5052636;28;20175;-50
2020/12/24 09:08:48;;;;;;;3.00;2.80;;;;;;;;;;5052402;28;20405;-50
2020/12/24 09:11:31;;;;;;;2.65;2.45;;;;;;;;;;5052075;28;20171;-52
2020/12/24 09:13:57;;;;;;;3.05;2.78;;;;;;;;;;5052254;28;20212;-50
2020/12/24 09:16:23;;;;;;;2.83;2.35;;;;;;;;;;5052315;28;20197;-52
2020/12/24 09:18:59;;;;;;;2.75;2.55;;;;;;;;;;5052405;28;20207;-52
2020/12/24 09:21:25;;;;;;;2.75;2.55;;;;;;;;;;5052066;28;20171;-51
2020/12/24 09:23:51;;;;;;;2.47;2.33;;;;;;;;;;5052699;28;20533;-53
2020/12/24 09:26:17;;;;;;;3.00;2.57;;;;;;;;;;5051598;28;20405;-52
2020/12/24 09:28:43;;;;;;;2.73;2.20;;;;;;;;;;5052067;28;20401;-52
2020/12/24 09:31:09;;;;;;;3.10;2.80;;;;;;;;;;5051673;28;21257;-50
2020/12/24 09:33:35;;;;;;;3.30;3.00;;;;;;;;;;5048748;28;20445;-51
2020/12/24 09:36:01;;;;;;;2.80;2.60;;;;;;;;;;5051839;28;20459;-53
2020/12/24 09:38:27;;;;;;;2.37;2.27;;;;;;;;;;5051887;28;20461;-49
2020/12/24 09:40:53;;;;;;;3.33;3.00;;;;;;;;;;5050677;28;20397;-50
2020/12/24 09:43:19;;;;;;;2.90;2.70;;;;;;;;;;5051513;28;20508;-50
2020/12/24 09:45:45;;;;;;;2.80;2.60;;;;;;;;;;5051810;28;20902;-50
2020/12/24 09:48:11;;;;;;;2.87;2.67;;;;;;;;;;5051705;28;20405;-50
2020/12/24 09:50:40;;;;;;;4.38;2.90;;;;;;;;;;5051743;28;20440;-49
2020/12/24 09:53:06;;;;;;;3.30;3.03;;;;;;;;;;5051270;28;20198;-50
2020/12/24 09:55:32;;;;;;;3.80;3.50;;;;;;;;;;5051644;28;20689;-50
2020/12/24 09:57:58;;;;;;;3.00;2.80;;;;;;;;;;5051371;28;20457;-50
2020/12/24 10:00:24;;;;;;;4.63;3.03;;;;;;;;;;5051611;28;20455;-52
2020/12/24 10:02:50;;;;;;;3.53;3.22;;;;;;;;;;5049245;28;20478;-51
2020/12/24 10:05:17;;;;;;;2.53;2.43;;;;;;;;;;5049731;28;20684;-51
2020/12/24 10:07:43;;;;;;;3.80;3.13;;;;;;;;;;5051343;28;20400;-51
2020/12/24 10:10:08;;;;;;;3.20;2.90;;;;;;;;;;5051463;28;20172;-52
2020/12/24 10:12:34;;;;;;;4.20;3.00;;;;;;;;;;5050999;28;20456;-53
2020/12/24 10:15:00;;;;;;;2.50;2.30;;;;;;;;;;5051465;28;20973;-54
2020/12/24 10:17:26;;;;;;;3.50;3.20;;;;;;;;;;5051337;28;20556;-53
2020/12/24 10:19:53;;;;;;;3.17;2.97;;;;;;;;;;5051331;28;20262;-49
2020/12/24 10:22:19;;;;;;;2.72;2.53;;;;;;;;;;5051031;28;20569;-52
2020/12/24 10:24:45;;;;;;;5.60;3.00;;;;;;;;;;5051072;28;20241;-51
2020/12/24 10:27:12;;;;;;;4.13;2.70;;;;;;;;;;5051116;28;20635;-51
2020/12/24 10:29:41;;;;;;;2.90;2.53;;;;;;;;;;5051015;28;20406;-50
2020/12/24 10:32:08;;;;;;;2.97;2.72;;;;;;;;;;5049132;28;20876;-50
2020/12/24 10:34:34;;;;;;;4.22;3.03;;;;;;;;;;5050767;28;20175;-49
2020/12/24 10:37:03;;;;;;;2.93;2.73;;;;;;;;;;5050856;28;20202;-50
2020/12/24 10:39:29;;;;;;;2.60;2.47;;;;;;;;;;5049310;28;20403;-49
2020/12/24 10:41:57;;;;;;;2.80;2.60;;;;;;;;;;5050494;28;20195;-49
2020/12/24 10:44:23;;;;;;;2.42;2.22;;;;;;;;;;5050728;28;20208;-49
2020/12/24 10:46:53;;;;;;;4.13;2.40;;;;;;;;;;5049391;28;20257;-50
2020/12/24 10:49:19;;;;;;;2.60;2.45;;;;;;;;;;5050737;28;20159;-49
2020/12/24 10:51:44;;;;;;;3.50;3.30;;;;;;;;;;5050359;28;20182;-49
2020/12/24 10:54:10;;;;;;;4.37;3.97;;;;;;;;;;5050497;28;20416;-52
2020/12/24 10:56:36;;;;;;;3.90;3.60;;;;;;;;;;5050445;28;20421;-51
2020/12/24 10:59:02;;;;;;;3.63;3.30;;;;;;;;;;5050601;28;20408;-52
2020/12/24 11:01:28;;;;;;;3.60;3.40;;;;;;;;;;5050012;28;20398;-49
2020/12/24 11:03:54;;;;;;;4.35;3.85;;;;;;;;;;5046857;28;20418;-50
2020/12/24 11:06:22;;;;;;;3.90;3.60;;;;;;;;;;5050466;28;20213;-50
2020/12/24 11:08:48;;;;;;;4.70;3.67;;;;;;;;;;5050472;28;20595;-50
2020/12/24 11:11:14;;;;;;;4.15;3.30;;;;;;;;;;5050125;28;20171;-52
2020/12/24 11:13:41;;;;;;;3.85;3.50;;;;;;;;;;5050512;28;20718;-49
2020/12/24 11:16:07;;;;;;;3.88;3.58;;;;;;;;;;5050174;28;20181;-50
2020/12/24 11:18:34;;;;;;;4.07;3.73;;;;;;;;;;5050446;28;20199;-49
2020/12/24 11:21:00;;;;;;;3.92;3.63;;;;;;;;;;5046140;28;20483;-51
2020/12/24 11:23:26;;;;;;;3.70;3.27;;;;;;;;;;5049903;28;20214;-52
2020/12/24 11:25:52;;;;;;;3.83;3.53;;;;;;;;;;5050447;28;20406;-49
2020/12/24 11:28:17;;;;;;;3.40;3.10;;;;;;;;;;5050450;28;20411;-49
2020/12/24 11:30:43;;;;;;;3.47;3.27;;;;;;;;;;5050479;28;20409;-49
2020/12/24 11:33:10;;;;;;;3.20;3.00;;;;;;;;;;5047185;28;20453;-50
2020/12/24 11:35:36;;;;;;;3.45;3.15;;;;;;;;;;5050479;28;20413;-49
2020/12/24 11:38:02;;;;;;;3.40;3.10;;;;;;;;;;5050063;28;20204;-50
2020/12/24 11:40:28;;;;;;;3.50;3.20;;;;;;;;;;5050301;28;20398;-49
2020/12/24 11:42:54;;;;;;;3.93;3.63;;;;;;;;;;5040549;28;20971;-52
2020/12/24 11:45:20;;;;;;;4.60;3.70;;;;;;;;;;5019780;28;20828;-49
2020/12/24 11:47:46;;;;;;;3.85;3.55;;;;;;;;;;5029914;28;20821;-50
2020/12/24 11:50:12;;;;;;;3.90;3.60;;;;;;;;;;5031129;28;20225;-49
2020/12/24 11:52:38;;;;;;;5.77;3.50;;;;;;;;;;5033355;28;20482;-48
2020/12/24 11:55:05;;;;;;;4.93;4.53;;;;;;;;;;5034002;28;20413;-49
2020/12/24 11:57:31;;;;;;;6.38;4.07;;;;;;;;;;5032524;28;20206;-52
2020/12/24 11:59:57;;;;;;;6.25;4.60;;;;;;;;;;5033706;28;20168;-51
2020/12/24 12:02:24;;;;;;;6.80;6.20;;;;;;;;;;5033041;28;20196;-51
2020/12/24 12:04:50;;;;;;;5.85;5.32;;;;;;;;;;5035195;28;20444;-50
2020/12/24 12:07:16;;;;;;;12.60;9.30;;;;;;;;;;5034252;28;20276;-50
2020/12/24 12:09:42;;;;;;;12.65;8.45;;;;;;;;;;5041365;28;20398;-49
2020/12/24 12:12:08;;;;;;;13.33;10.10;;;;;;;;;;5032474;28;20575;-49
2020/12/24 12:14:34;;;;;;;18.63;10.03;;;;;;;;;;5053604;28;20431;-50
2020/12/24 12:17:00;;;;;;;12.90;10.02;;;;;;;;;;5042571;28;20965;-50
2020/12/24 12:19:26;;;;;;;13.82;9.15;;;;;;;;;;5033556;28;20195;-52
2020/12/24 12:21:52;;;;;;;11.57;9.07;;;;;;;;;;5032485;28;20237;-49
2020/12/24 12:24:19;;;;;;;11.00;8.73;;;;;;;;;;5032921;28;20181;-49
2020/12/24 12:26:45;;;;;;;13.55;10.02;;;;;;;;;;5039020;28;21049;-50
2020/12/24 12:29:11;;;;;;;16.67;10.90;;;;;;;;;;5032763;28;20245;-50
2020/12/24 12:31:37;;;;;;;13.93;10.33;;;;;;;;;;5046351;28;20944;-52
2020/12/24 12:34:03;;;;;;;17.35;10.65;;;;;;;;;;5037990;28;20420;-52
2020/12/24 12:36:29;;;;;;;14.27;10.40;;;;;;;;;;5032382;28;20609;-52
2020/12/24 12:38:55;;;;;;;13.30;9.20;;;;;;;;;;5032368;28;20236;-52
2020/12/24 12:41:22;;;;;;;13.83;9.73;;;;;;;;;;5032405;28;20508;-49
2020/12/24 12:43:48;;;;;;;10.93;8.83;;;;;;;;;;5032749;28;20813;-53
2020/12/24 12:46:21;;;;;;;11.50;7.80;;;;;;;;;;5032825;28;20833;-51
2020/12/24 12:48:47;;;;;;;11.43;8.52;;;;;;;;;;5032127;28;20222;-49
2020/12/24 12:51:13;;;;;;;9.43;8.43;;;;;;;;;;5031801;28;20180;-49
2020/12/24 12:53:39;;;;;;;7.18;6.45;;;;;;;;;;5032552;28;20242;-49
2020/12/24 12:56:09;;;;;;;6.93;6.00;;;;;;;;;;5032697;28;20172;-49
2020/12/24 12:58:35;;;;;;;8.32;6.35;;;;;;;;;;5032546;28;20192;-49
2020/12/24 13:01:01;;;;;;;10.98;5.70;;;;;;;;;;5032226;28;20168;-49
2020/12/24 13:03:27;;;;;;;9.63;5.78;;;;;;;;;;5030019;28;20196;-48
2020/12/24 13:05:53;;;;;;;6.10;5.53;;;;;;;;;;5032080;28;20558;-50
2020/12/24 13:08:19;;;;;;;11.40;7.37;;;;;;;;;;5032698;28;20430;-49
2020/12/24 13:10:45;;;;;;;11.60;6.33;;;;;;;;;;5033502;28;20418;-51
2020/12/24 13:13:11;;;;;;;8.57;6.60;;;;;;;;;;5032094;28;20477;-53
2020/12/24 13:15:37;;;;;;;9.80;6.70;;;;;;;;;;5032267;28;20179;-52
2020/12/24 13:18:03;;;;;;;8.97;6.93;;;;;;;;;;5032241;28;20469;-52
2020/12/24 13:20:29;;;;;;;9.27;6.77;;;;;;;;;;5032154;28;20544;-51
2020/12/24 13:22:55;;;;;;;6.60;5.50;;;;;;;;;;5031886;28;20428;-51
2020/12/24 13:25:21;;;;;;;8.77;6.70;;;;;;;;;;5030827;28;20445;-48
2020/12/24 13:27:47;;;;;;;12.50;6.00;;;;;;;;;;5032017;28;20528;-48
2020/12/24 13:30:13;;;;;;;9.35;6.07;;;;;;;;;;5031499;28;20410;-48
2020/12/24 13:32:39;;;;;;;8.18;6.80;;;;;;;;;;5028473;28;20201;-49
2020/12/24 13:35:07;;;;;;;12.53;8.70;;;;;;;;;;5031102;28;20543;-49
2020/12/24 13:37:33;;;;;;;10.65;7.95;;;;;;;;;;5031987;28;20996;-48
2020/12/24 13:39:59;;;;;;;11.85;7.65;;;;;;;;;;5029074;28;20217;-49
2020/12/24 13:42:25;;;;;;;13.65;7.43;;;;;;;;;;5031002;28;20227;-48
2020/12/24 13:44:51;;;;;;;9.47;7.40;;;;;;;;;;5031888;28;20628;-49
2020/12/24 13:47:18;;;;;;;10.77;7.70;;;;;;;;;;5031508;28;20530;-49
2020/12/24 13:49:44;;;;;;;12.75;7.60;;;;;;;;;;5031638;28;20440;-51
2020/12/24 13:52:10;;;;;;;15.57;7.20;;;;;;;;;;5030606;28;20285;-50
2020/12/24 13:54:36;;;;;;;11.52;8.00;;;;;;;;;;5031107;28;20419;-50
2020/12/24 13:57:02;;;;;;;10.57;8.00;;;;;;;;;;5029650;28;20287;-51
2020/12/24 13:59:28;;;;;;;9.93;7.35;;;;;;;;;;5013560;28;20426;-52
2020/12/24 14:01:55;;;;;;;9.20;8.20;;;;;;;;;;5032942;28;20567;-49
2020/12/24 14:04:22;;;;;;;14.00;8.02;;;;;;;;;;5029565;28;20434;-49
2020/12/24 14:06:48;;;;;;;9.20;7.03;;;;;;;;;;5029435;28;20242;-51
2020/12/24 14:09:14;;;;;;;15.13;9.90;;;;;;;;;;5030301;28;20251;-49
2020/12/24 14:11:41;;;;;;;15.13;9.50;;;;;;;;;;5030454;28;20184;-49
2020/12/24 14:14:07;;;;;;;9.02;8.05;;;;;;;;;;5031186;28;20169;-48
2020/12/24 14:16:33;;;;;;;18.33;8.90;;;;;;;;;;5030496;28;20226;-48
2020/12/24 14:18:59;;;;;;;10.70;8.32;;;;;;;;;;5030743;28;20212;-49
2020/12/24 14:21:25;;;;;;;12.85;9.00;;;;;;;;;;5030657;28;20175;-48
2020/12/24 14:23:51;;;;;;;10.70;8.93;;;;;;;;;;5031160;28;20172;-49
2020/12/24 14:26:18;;;;;;;18.53;10.47;;;;;;;;;;5031433;28;20399;-49
2020/12/24 14:28:46;;;;;;;12.50;9.50;;;;;;;;;;5030738;28;20423;-48
2020/12/24 14:31:12;;;;;;;21.73;11.15;;;;;;;;;;5043549;28;20187;-48
2020/12/24 14:33:38;;;;;;;13.23;10.20;;;;;;;;;;5035565;28;20200;-49
2020/12/24 14:36:04;;;;;;;15.35;10.50;;;;;;;;;;5030721;28;20214;-49
2020/12/24 14:38:33;;;;;;;15.30;10.85;;;;;;;;;;5030619;28;20203;-48
2020/12/24 14:41:04;;;;;;;18.13;10.27;;;;;;;;;;5030396;28;20181;-54